sensor_id;sensor_type;location;lat;lon;timestamp;P1;durP1;ratioP1;P2;durP2;ratioP2
15358;SDS011;7779;49.596;11.070;2022-12-07T00:01:28;3.57;;;3.27;;
15358;SDS011;7779;49.596;11.070;2022-12-07T00:04:00;3.90;;;3.50;;
15358;SDS011;7779;49.596;11.070;2022-12-07T00:06:31;4.23;;;3.83;;
15358;SDS011;7779;49.596;11.070;2022-12-07T00:08:59;3.40;;;3.10;;
15358;SDS011;7779;49.596;11.070;2022-12-07T00:11:25;4.63;;;3.63;;
15358;SDS011;7779;49.596;11.070;2022-12-07T00:13:55;4.67;;;3.40;;
15358;SDS011;7779;49.596;11.070;2022-12-07T00:16:25;3.40;;;3.10;;
15358;SDS011;7779;49.596;11.070;2022-12-07T00:18:54;4.30;;;3.40;;
15358;SDS011;7779;49.596;11.070;2022-12-07T00:21:22;3.53;;;3.13;;
15358;SDS011;7779;49.596;11.070;2022-12-07T00:23:52;3.90;;;3.60;;
15358;SDS011;7779;49.596;11.070;2022-12-07T00:26:29;3.53;;;3.23;;
15358;SDS011;7779;49.596;11.070;2022-12-07T00:29:03;3.80;;;3.17;;
15358;SDS011;7779;49.596;11.070;2022-12-07T00:31:38;4.03;;;3.63;;
15358;SDS011;7779;49.596;11.070;2022-12-07T00:34:04;4.07;;;3.60;;
15358;SDS011;7779;49.596;11.070;2022-12-07T00:36:33;4.43;;;3.60;;
15358;SDS011;7779;49.596;11.070;2022-12-07T00:38:59;3.80;;;3.50;;
15358;SDS011;7779;49.596;11.070;2022-12-07T00:41:26;4.03;;;3.63;;
15358;SDS011;7779;49.596;11.070;2022-12-07T00:43:53;4.37;;;3.97;;
15358;SDS011;7779;49.596;11.070;2022-12-07T00:46:20;4.77;;;3.60;;
15358;SDS011;7779;49.596;11.070;2022-12-07T00:48:47;3.70;;;3.40;;
15358;SDS011;7779;49.596;11.070;2022-12-07T00:51:14;4.57;;;4.03;;
15358;SDS011;7779;49.596;11.070;2022-12-07T00:53:42;4.90;;;4.10;;
15358;SDS011;7779;49.596;11.070;2022-12-07T00:56:09;3.90;;;3.50;;
15358;SDS011;7779;49.596;11.070;2022-12-07T00:58:41;4.33;;;3.90;;
15358;SDS011;7779;49.596;11.070;2022-12-07T01:01:08;4.40;;;4.00;;
15358;SDS011;7779;49.596;11.070;2022-12-07T01:03:36;3.67;;;3.37;;
15358;SDS011;7779;49.596;11.070;2022-12-07T01:06:02;4.23;;;3.83;;
15358;SDS011;7779;49.596;11.070;2022-12-07T01:08:28;4.00;;;3.60;;
15358;SDS011;7779;49.596;11.070;2022-12-07T01:11:03;4.23;;;3.83;;
15358;SDS011;7779;49.596;11.070;2022-12-07T01:13:32;4.40;;;4.00;;
15358;SDS011;7779;49.596;11.070;2022-12-07T01:16:02;4.60;;;4.10;;
15358;SDS011;7779;49.596;11.070;2022-12-07T01:18:31;4.27;;;3.87;;
15358;SDS011;7779;49.596;11.070;2022-12-07T01:23:32;4.63;;;3.90;;
15358;SDS011;7779;49.596;11.070;2022-12-07T01:26:01;4.67;;;4.13;;
15358;SDS011;7779;49.596;11.070;2022-12-07T01:28:34;4.13;;;3.70;;
15358;SDS011;7779;49.596;11.070;2022-12-07T01:31:04;4.10;;;3.60;;
15358;SDS011;7779;49.596;11.070;2022-12-07T01:33:34;4.50;;;4.07;;
15358;SDS011;7779;49.596;11.070;2022-12-07T01:36:02;5.27;;;4.43;;
15358;SDS011;7779;49.596;11.070;2022-12-07T01:38:31;4.57;;;4.00;;
15358;SDS011;7779;49.596;11.070;2022-12-07T01:40:58;4.43;;;4.00;;
15358;SDS011;7779;49.596;11.070;2022-12-07T01:43:26;4.40;;;4.00;;
15358;SDS011;7779;49.596;11.070;2022-12-07T01:45:54;5.00;;;4.27;;
15358;SDS011;7779;49.596;11.070;2022-12-07T01:48:22;4.90;;;4.17;;
15358;SDS011;7779;49.596;11.070;2022-12-07T01:51:05;4.60;;;4.10;;
15358;SDS011;7779;49.596;11.070;2022-12-07T01:53:38;4.40;;;3.97;;
15358;SDS011;7779;49.596;11.070;2022-12-07T01:56:10;5.03;;;4.40;;
15358;SDS011;7779;49.596;11.070;2022-12-07T01:58:44;4.47;;;4.07;;
15358;SDS011;7779;49.596;11.070;2022-12-07T02:01:10;4.70;;;4.30;;
15358;SDS011;7779;49.596;11.070;2022-12-07T02:03:38;5.00;;;4.50;;
15358;SDS011;7779;49.596;11.070;2022-12-07T02:06:07;5.47;;;4.73;;
15358;SDS011;7779;49.596;11.070;2022-12-07T02:08:36;5.27;;;4.60;;
15358;SDS011;7779;49.596;11.070;2022-12-07T02:11:03;4.60;;;4.13;;
15358;SDS011;7779;49.596;11.070;2022-12-07T02:13:32;4.80;;;4.30;;
15358;SDS011;7779;49.596;11.070;2022-12-07T02:16:20;4.90;;;4.17;;
15358;SDS011;7779;49.596;11.070;2022-12-07T02:19:11;5.03;;;4.47;;
15358;SDS011;7779;49.596;11.070;2022-12-07T02:31:38;4.97;;;4.47;;
15358;SDS011;7779;49.596;11.070;2022-12-07T02:34:21;5.03;;;4.53;;
15358;SDS011;7779;49.596;11.070;2022-12-07T02:36:59;4.93;;;4.43;;
15358;SDS011;7779;49.596;11.070;2022-12-07T02:39:42;5.50;;;4.67;;
15358;SDS011;7779;49.596;11.070;2022-12-07T02:42:17;5.13;;;4.63;;
15358;SDS011;7779;49.596;11.070;2022-12-07T02:44:56;5.77;;;4.57;;
15358;SDS011;7779;49.596;11.070;2022-12-07T02:47:24;5.70;;;5.10;;
15358;SDS011;7779;49.596;11.070;2022-12-07T02:49:52;5.23;;;4.73;;
15358;SDS011;7779;49.596;11.070;2022-12-07T02:52:18;5.60;;;5.07;;
15358;SDS011;7779;49.596;11.070;2022-12-07T02:54:43;6.03;;;5.20;;
15358;SDS011;7779;49.596;11.070;2022-12-07T03:00:12;6.17;;;5.20;;
15358;SDS011;7779;49.596;11.070;2022-12-07T03:05:52;5.40;;;4.70;;
15358;SDS011;7779;49.596;11.070;2022-12-07T03:09:07;6.00;;;5.20;;
15358;SDS011;7779;49.596;11.070;2022-12-07T03:12:34;5.27;;;4.77;;
15358;SDS011;7779;49.596;11.070;2022-12-07T03:15:22;6.00;;;4.90;;
15358;SDS011;7779;49.596;11.070;2022-12-07T03:18:03;6.33;;;4.87;;
15358;SDS011;7779;49.596;11.070;2022-12-07T03:20:30;5.60;;;5.00;;
15358;SDS011;7779;49.596;11.070;2022-12-07T03:23:00;5.30;;;4.67;;
15358;SDS011;7779;49.596;11.070;2022-12-07T03:25:29;5.83;;;4.90;;
15358;SDS011;7779;49.596;11.070;2022-12-07T03:27:59;6.33;;;5.27;;
15358;SDS011;7779;49.596;11.070;2022-12-07T03:30:37;5.83;;;4.93;;
15358;SDS011;7779;49.596;11.070;2022-12-07T03:33:17;5.47;;;4.90;;
15358;SDS011;7779;49.596;11.070;2022-12-07T03:36:37;6.23;;;5.00;;
15358;SDS011;7779;49.596;11.070;2022-12-07T03:42:02;5.60;;;5.03;;
15358;SDS011;7779;49.596;11.070;2022-12-07T03:44:32;5.63;;;4.93;;
15358;SDS011;7779;49.596;11.070;2022-12-07T03:49:49;5.90;;;5.30;;
15358;SDS011;7779;49.596;11.070;2022-12-07T03:52:30;6.73;;;5.03;;
15358;SDS011;7779;49.596;11.070;2022-12-07T03:57:44;5.23;;;4.73;;
15358;SDS011;7779;49.596;11.070;2022-12-07T04:00:14;5.73;;;4.90;;
15358;SDS011;7779;49.596;11.070;2022-12-07T04:02:41;7.63;;;4.73;;
15358;SDS011;7779;49.596;11.070;2022-12-07T04:05:08;6.43;;;5.27;;
15358;SDS011;7779;49.596;11.070;2022-12-07T04:07:34;5.90;;;5.07;;
15358;SDS011;7779;49.596;11.070;2022-12-07T04:10:00;6.37;;;5.20;;
15358;SDS011;7779;49.596;11.070;2022-12-07T04:12:26;5.87;;;5.30;;
15358;SDS011;7779;49.596;11.070;2022-12-07T04:14:51;5.50;;;4.67;;
15358;SDS011;7779;49.596;11.070;2022-12-07T04:17:17;5.10;;;4.43;;
15358;SDS011;7779;49.596;11.070;2022-12-07T04:19:43;5.53;;;5.03;;
15358;SDS011;7779;49.596;11.070;2022-12-07T04:22:08;5.57;;;4.83;;
15358;SDS011;7779;49.596;11.070;2022-12-07T04:24:34;6.67;;;5.30;;
15358;SDS011;7779;49.596;11.070;2022-12-07T04:27:00;5.00;;;4.50;;
15358;SDS011;7779;49.596;11.070;2022-12-07T04:29:26;6.37;;;5.13;;
15358;SDS011;7779;49.596;11.070;2022-12-07T04:31:52;5.83;;;5.23;;
15358;SDS011;7779;49.596;11.070;2022-12-07T04:34:18;5.60;;;4.83;;
15358;SDS011;7779;49.596;11.070;2022-12-07T04:36:44;5.80;;;5.20;;
15358;SDS011;7779;49.596;11.070;2022-12-07T04:39:20;6.17;;;5.00;;
15358;SDS011;7779;49.596;11.070;2022-12-07T04:41:57;7.10;;;5.20;;
15358;SDS011;7779;49.596;11.070;2022-12-07T04:44:24;7.77;;;5.40;;
15358;SDS011;7779;49.596;11.070;2022-12-07T04:46:52;6.93;;;5.43;;
15358;SDS011;7779;49.596;11.070;2022-12-07T04:49:18;7.03;;;5.63;;
15358;SDS011;7779;49.596;11.070;2022-12-07T04:51:45;5.87;;;5.20;;
15358;SDS011;7779;49.596;11.070;2022-12-07T04:54:12;8.10;;;5.77;;
15358;SDS011;7779;49.596;11.070;2022-12-07T04:56:40;6.40;;;5.60;;
15358;SDS011;7779;49.596;11.070;2022-12-07T04:59:06;7.40;;;6.33;;
15358;SDS011;7779;49.596;11.070;2022-12-07T05:01:33;7.40;;;6.00;;
15358;SDS011;7779;49.596;11.070;2022-12-07T05:03:59;6.97;;;5.77;;
15358;SDS011;7779;49.596;11.070;2022-12-07T05:06:25;7.27;;;5.80;;
15358;SDS011;7779;49.596;11.070;2022-12-07T05:08:51;6.50;;;5.23;;
15358;SDS011;7779;49.596;11.070;2022-12-07T05:11:17;6.30;;;5.57;;
15358;SDS011;7779;49.596;11.070;2022-12-07T05:14:02;7.27;;;6.17;;
15358;SDS011;7779;49.596;11.070;2022-12-07T05:16:29;7.57;;;5.90;;
15358;SDS011;7779;49.596;11.070;2022-12-07T05:18:55;8.23;;;6.63;;
15358;SDS011;7779;49.596;11.070;2022-12-07T05:21:21;8.60;;;7.20;;
15358;SDS011;7779;49.596;11.070;2022-12-07T05:23:48;8.70;;;7.40;;
15358;SDS011;7779;49.596;11.070;2022-12-07T05:26:13;10.23;;;7.13;;
15358;SDS011;7779;49.596;11.070;2022-12-07T05:28:39;8.13;;;6.40;;
15358;SDS011;7779;49.596;11.070;2022-12-07T05:31:05;7.93;;;6.93;;
15358;SDS011;7779;49.596;11.070;2022-12-07T05:33:31;7.90;;;6.57;;
15358;SDS011;7779;49.596;11.070;2022-12-07T05:35:57;9.67;;;7.47;;
15358;SDS011;7779;49.596;11.070;2022-12-07T05:38:23;9.93;;;8.20;;
15358;SDS011;7779;49.596;11.070;2022-12-07T05:40:50;10.60;;;8.13;;
15358;SDS011;7779;49.596;11.070;2022-12-07T05:43:16;9.57;;;7.93;;
15358;SDS011;7779;49.596;11.070;2022-12-07T05:45:41;9.33;;;7.17;;
15358;SDS011;7779;49.596;11.070;2022-12-07T05:48:07;9.43;;;7.87;;
15358;SDS011;7779;49.596;11.070;2022-12-07T05:50:33;9.87;;;7.50;;
15358;SDS011;7779;49.596;11.070;2022-12-07T05:52:59;8.57;;;7.33;;
15358;SDS011;7779;49.596;11.070;2022-12-07T05:55:25;8.83;;;6.93;;
15358;SDS011;7779;49.596;11.070;2022-12-07T05:57:50;9.40;;;6.63;;
15358;SDS011;7779;49.596;11.070;2022-12-07T06:00:45;9.37;;;7.23;;
15358;SDS011;7779;49.596;11.070;2022-12-07T06:03:11;9.13;;;7.07;;
15358;SDS011;7779;49.596;11.070;2022-12-07T06:05:36;9.63;;;8.20;;
15358;SDS011;7779;49.596;11.070;2022-12-07T06:08:02;10.03;;;8.00;;
15358;SDS011;7779;49.596;11.070;2022-12-07T06:10:28;9.03;;;7.20;;
15358;SDS011;7779;49.596;11.070;2022-12-07T06:12:54;7.83;;;6.73;;
15358;SDS011;7779;49.596;11.070;2022-12-07T06:15:19;8.80;;;7.73;;
15358;SDS011;7779;49.596;11.070;2022-12-07T06:17:46;11.03;;;8.10;;
15358;SDS011;7779;49.596;11.070;2022-12-07T06:20:12;11.83;;;9.13;;
15358;SDS011;7779;49.596;11.070;2022-12-07T06:22:38;11.33;;;8.73;;
15358;SDS011;7779;49.596;11.070;2022-12-07T06:25:04;10.20;;;7.93;;
15358;SDS011;7779;49.596;11.070;2022-12-07T06:27:30;12.83;;;8.73;;
15358;SDS011;7779;49.596;11.070;2022-12-07T06:29:57;11.57;;;8.57;;
15358;SDS011;7779;49.596;11.070;2022-12-07T06:32:24;10.20;;;8.60;;
15358;SDS011;7779;49.596;11.070;2022-12-07T06:34:49;10.50;;;8.00;;
15358;SDS011;7779;49.596;11.070;2022-12-07T06:37:15;10.43;;;7.77;;
15358;SDS011;7779;49.596;11.070;2022-12-07T06:39:41;10.87;;;7.80;;
15358;SDS011;7779;49.596;11.070;2022-12-07T06:42:06;10.30;;;7.80;;
15358;SDS011;7779;49.596;11.070;2022-12-07T06:44:32;10.77;;;8.03;;
15358;SDS011;7779;49.596;11.070;2022-12-07T06:46:58;8.97;;;7.80;;
15358;SDS011;7779;49.596;11.070;2022-12-07T06:49:24;10.13;;;8.03;;
15358;SDS011;7779;49.596;11.070;2022-12-07T06:51:49;8.37;;;7.10;;
15358;SDS011;7779;49.596;11.070;2022-12-07T06:54:15;9.83;;;7.40;;
15358;SDS011;7779;49.596;11.070;2022-12-07T06:56:41;10.10;;;8.23;;
15358;SDS011;7779;49.596;11.070;2022-12-07T06:59:07;10.70;;;8.10;;
15358;SDS011;7779;49.596;11.070;2022-12-07T07:01:34;11.20;;;8.23;;
15358;SDS011;7779;49.596;11.070;2022-12-07T07:04:01;10.03;;;7.77;;
15358;SDS011;7779;49.596;11.070;2022-12-07T07:06:27;10.83;;;7.63;;
15358;SDS011;7779;49.596;11.070;2022-12-07T07:08:53;11.63;;;8.03;;
15358;SDS011;7779;49.596;11.070;2022-12-07T07:11:18;10.47;;;8.03;;
15358;SDS011;7779;49.596;11.070;2022-12-07T07:13:44;10.57;;;8.37;;
15358;SDS011;7779;49.596;11.070;2022-12-07T07:16:11;13.77;;;9.50;;
15358;SDS011;7779;49.596;11.070;2022-12-07T07:18:36;12.20;;;9.63;;
15358;SDS011;7779;49.596;11.070;2022-12-07T07:21:02;10.07;;;8.27;;
15358;SDS011;7779;49.596;11.070;2022-12-07T07:23:29;12.87;;;8.67;;
15358;SDS011;7779;49.596;11.070;2022-12-07T07:25:55;10.80;;;8.77;;
15358;SDS011;7779;49.596;11.070;2022-12-07T07:28:20;11.53;;;8.57;;
15358;SDS011;7779;49.596;11.070;2022-12-07T07:30:47;11.00;;;8.60;;
15358;SDS011;7779;49.596;11.070;2022-12-07T07:33:13;11.00;;;8.50;;
15358;SDS011;7779;49.596;11.070;2022-12-07T07:35:39;11.17;;;8.50;;
15358;SDS011;7779;49.596;11.070;2022-12-07T07:38:05;10.50;;;8.60;;
15358;SDS011;7779;49.596;11.070;2022-12-07T07:40:32;10.20;;;8.00;;
15358;SDS011;7779;49.596;11.070;2022-12-07T07:42:58;10.03;;;8.60;;
15358;SDS011;7779;49.596;11.070;2022-12-07T07:45:24;12.70;;;9.60;;
15358;SDS011;7779;49.596;11.070;2022-12-07T07:47:51;11.47;;;8.17;;
15358;SDS011;7779;49.596;11.070;2022-12-07T07:50:17;11.80;;;8.60;;
15358;SDS011;7779;49.596;11.070;2022-12-07T07:52:44;14.50;;;10.57;;
15358;SDS011;7779;49.596;11.070;2022-12-07T07:55:10;15.77;;;10.90;;
15358;SDS011;7779;49.596;11.070;2022-12-07T07:57:37;14.67;;;10.97;;
15358;SDS011;7779;49.596;11.070;2022-12-07T08:00:06;14.47;;;9.73;;
15358;SDS011;7779;49.596;11.070;2022-12-07T08:02:39;12.13;;;9.40;;
15358;SDS011;7779;49.596;11.070;2022-12-07T08:05:11;11.20;;;8.90;;
15358;SDS011;7779;49.596;11.070;2022-12-07T08:07:38;11.80;;;8.57;;
15358;SDS011;7779;49.596;11.070;2022-12-07T08:10:04;11.97;;;8.90;;
15358;SDS011;7779;49.596;11.070;2022-12-07T08:12:33;13.00;;;10.17;;
15358;SDS011;7779;49.596;11.070;2022-12-07T08:15:02;14.13;;;10.00;;
15358;SDS011;7779;49.596;11.070;2022-12-07T08:17:29;12.87;;;9.53;;
15358;SDS011;7779;49.596;11.070;2022-12-07T08:19:54;13.50;;;10.13;;
15358;SDS011;7779;49.596;11.070;2022-12-07T08:22:21;12.30;;;9.67;;
15358;SDS011;7779;49.596;11.070;2022-12-07T08:24:47;13.10;;;9.27;;
15358;SDS011;7779;49.596;11.070;2022-12-07T08:27:12;12.43;;;9.40;;
15358;SDS011;7779;49.596;11.070;2022-12-07T08:29:38;11.40;;;9.37;;
15358;SDS011;7779;49.596;11.070;2022-12-07T08:32:04;11.73;;;9.33;;
15358;SDS011;7779;49.596;11.070;2022-12-07T08:34:29;12.43;;;9.03;;
15358;SDS011;7779;49.596;11.070;2022-12-07T08:36:55;12.00;;;9.70;;
15358;SDS011;7779;49.596;11.070;2022-12-07T08:39:21;11.67;;;9.30;;
15358;SDS011;7779;49.596;11.070;2022-12-07T08:41:46;13.27;;;9.70;;
15358;SDS011;7779;49.596;11.070;2022-12-07T08:44:12;11.07;;;8.90;;
15358;SDS011;7779;49.596;11.070;2022-12-07T08:46:39;11.17;;;8.70;;
15358;SDS011;7779;49.596;11.070;2022-12-07T08:49:18;11.07;;;8.53;;
15358;SDS011;7779;49.596;11.070;2022-12-07T08:51:49;11.37;;;8.10;;
15358;SDS011;7779;49.596;11.070;2022-12-07T08:54:16;11.37;;;8.27;;
15358;SDS011;7779;49.596;11.070;2022-12-07T08:56:44;11.00;;;7.70;;
15358;SDS011;7779;49.596;11.070;2022-12-07T08:59:13;9.87;;;7.90;;
15358;SDS011;7779;49.596;11.070;2022-12-07T09:01:41;11.07;;;8.53;;
15358;SDS011;7779;49.596;11.070;2022-12-07T09:04:07;9.33;;;7.47;;
15358;SDS011;7779;49.596;11.070;2022-12-07T09:06:33;9.77;;;7.07;;
15358;SDS011;7779;49.596;11.070;2022-12-07T09:08:59;10.73;;;7.47;;
15358;SDS011;7779;49.596;11.070;2022-12-07T09:11:26;8.43;;;6.90;;
15358;SDS011;7779;49.596;11.070;2022-12-07T09:13:52;8.43;;;6.80;;
15358;SDS011;7779;49.596;11.070;2022-12-07T09:16:18;8.57;;;7.40;;
15358;SDS011;7779;49.596;11.070;2022-12-07T09:18:43;7.77;;;6.50;;
15358;SDS011;7779;49.596;11.070;2022-12-07T09:21:09;7.30;;;6.17;;
15358;SDS011;7779;49.596;11.070;2022-12-07T09:23:35;7.53;;;6.30;;
15358;SDS011;7779;49.596;11.070;2022-12-07T09:26:01;7.10;;;5.60;;
15358;SDS011;7779;49.596;11.070;2022-12-07T09:28:32;7.33;;;6.30;;
15358;SDS011;7779;49.596;11.070;2022-12-07T09:30:58;7.43;;;6.40;;
15358;SDS011;7779;49.596;11.070;2022-12-07T09:33:25;9.33;;;6.83;;
15358;SDS011;7779;49.596;11.070;2022-12-07T09:35:51;8.23;;;6.70;;
15358;SDS011;7779;49.596;11.070;2022-12-07T09:38:17;7.93;;;6.83;;
15358;SDS011;7779;49.596;11.070;2022-12-07T09:40:45;8.33;;;5.97;;
15358;SDS011;7779;49.596;11.070;2022-12-07T09:43:19;8.63;;;6.37;;
15358;SDS011;7779;49.596;11.070;2022-12-07T09:45:49;8.40;;;6.80;;
15358;SDS011;7779;49.596;11.070;2022-12-07T09:48:20;7.63;;;6.33;;
15358;SDS011;7779;49.596;11.070;2022-12-07T09:51:01;7.83;;;6.57;;
15358;SDS011;7779;49.596;11.070;2022-12-07T09:53:39;7.63;;;6.40;;
15358;SDS011;7779;49.596;11.070;2022-12-07T09:56:06;9.27;;;7.20;;
15358;SDS011;7779;49.596;11.070;2022-12-07T09:58:39;8.73;;;7.10;;
15358;SDS011;7779;49.596;11.070;2022-12-07T10:01:09;8.67;;;6.73;;
15358;SDS011;7779;49.596;11.070;2022-12-07T10:03:41;8.30;;;6.70;;
15358;SDS011;7779;49.596;11.070;2022-12-07T10:06:15;8.40;;;6.60;;
15358;SDS011;7779;49.596;11.070;2022-12-07T10:08:40;8.70;;;7.23;;
15358;SDS011;7779;49.596;11.070;2022-12-07T10:11:08;9.00;;;6.80;;
15358;SDS011;7779;49.596;11.070;2022-12-07T10:13:39;9.40;;;7.33;;
15358;SDS011;7779;49.596;11.070;2022-12-07T10:16:26;9.90;;;7.33;;
15358;SDS011;7779;49.596;11.070;2022-12-07T10:18:57;9.83;;;7.70;;
15358;SDS011;7779;49.596;11.070;2022-12-07T10:24:38;8.73;;;7.20;;
15358;SDS011;7779;49.596;11.070;2022-12-07T10:27:17;9.10;;;7.80;;
15358;SDS011;7779;49.596;11.070;2022-12-07T10:29:54;8.50;;;6.73;;
15358;SDS011;7779;49.596;11.070;2022-12-07T10:34:45;10.50;;;7.27;;
15358;SDS011;7779;49.596;11.070;2022-12-07T10:39:40;10.33;;;7.77;;
15358;SDS011;7779;49.596;11.070;2022-12-07T10:42:29;8.67;;;7.77;;
15358;SDS011;7779;49.596;11.070;2022-12-07T10:45:07;9.40;;;7.63;;
15358;SDS011;7779;49.596;11.070;2022-12-07T10:47:44;12.10;;;8.73;;
15358;SDS011;7779;49.596;11.070;2022-12-07T10:56:25;7.93;;;6.73;;
15358;SDS011;7779;49.596;11.070;2022-12-07T10:59:20;9.40;;;7.10;;
15358;SDS011;7779;49.596;11.070;2022-12-07T11:02:24;9.97;;;7.30;;
15358;SDS011;7779;49.596;11.070;2022-12-07T11:08:30;9.57;;;6.83;;
15358;SDS011;7779;49.596;11.070;2022-12-07T11:11:33;10.30;;;6.70;;
15358;SDS011;7779;49.596;11.070;2022-12-07T11:17:14;9.57;;;6.70;;
15358;SDS011;7779;49.596;11.070;2022-12-07T11:29:08;8.67;;;7.20;;
15358;SDS011;7779;49.596;11.070;2022-12-07T11:34:57;10.50;;;7.30;;
15358;SDS011;7779;49.596;11.070;2022-12-07T11:37:36;11.13;;;8.03;;
15358;SDS011;7779;49.596;11.070;2022-12-07T11:40:14;10.30;;;7.90;;
15358;SDS011;7779;49.596;11.070;2022-12-07T11:42:58;8.47;;;6.90;;
15358;SDS011;7779;49.596;11.070;2022-12-07T11:46:14;7.87;;;6.90;;
15358;SDS011;7779;49.596;11.070;2022-12-07T11:48:49;8.50;;;6.63;;
15358;SDS011;7779;49.596;11.070;2022-12-07T11:51:38;8.00;;;6.50;;
15358;SDS011;7779;49.596;11.070;2022-12-07T11:54:12;7.53;;;6.53;;
15358;SDS011;7779;49.596;11.070;2022-12-07T11:56:47;7.53;;;6.60;;
15358;SDS011;7779;49.596;11.070;2022-12-07T11:59:18;7.87;;;6.70;;
15358;SDS011;7779;49.596;11.070;2022-12-07T12:02:04;7.97;;;6.37;;
15358;SDS011;7779;49.596;11.070;2022-12-07T12:07:44;7.43;;;6.07;;
15358;SDS011;7779;49.596;11.070;2022-12-07T12:22:18;8.90;;;6.03;;
15358;SDS011;7779;49.596;11.070;2022-12-07T12:24:50;7.37;;;5.90;;
15358;SDS011;7779;49.596;11.070;2022-12-07T12:27:27;7.17;;;6.10;;
15358;SDS011;7779;49.596;11.070;2022-12-07T12:30:01;7.30;;;5.97;;
15358;SDS011;7779;49.596;11.070;2022-12-07T12:32:41;8.07;;;6.83;;
15358;SDS011;7779;49.596;11.070;2022-12-07T12:41:01;7.43;;;6.63;;
15358;SDS011;7779;49.596;11.070;2022-12-07T12:48:56;7.90;;;6.37;;
15358;SDS011;7779;49.596;11.070;2022-12-07T12:51:56;9.13;;;6.97;;
15358;SDS011;7779;49.596;11.070;2022-12-07T12:57:34;7.97;;;6.70;;
15358;SDS011;7779;49.596;11.070;2022-12-07T13:00:14;7.07;;;6.20;;
15358;SDS011;7779;49.596;11.070;2022-12-07T13:02:56;7.43;;;6.67;;
15358;SDS011;7779;49.596;11.070;2022-12-07T13:05:25;6.63;;;5.93;;
15358;SDS011;7779;49.596;11.070;2022-12-07T13:10:47;6.63;;;5.70;;
15358;SDS011;7779;49.596;11.070;2022-12-07T13:20:59;7.13;;;5.90;;
15358;SDS011;7779;49.596;11.070;2022-12-07T13:29:05;6.57;;;5.73;;
15358;SDS011;7779;49.596;11.070;2022-12-07T13:31:46;7.17;;;5.77;;
15358;SDS011;7779;49.596;11.070;2022-12-07T13:42:24;7.70;;;6.33;;
15358;SDS011;7779;49.596;11.070;2022-12-07T13:44:51;6.13;;;5.53;;
15358;SDS011;7779;49.596;11.070;2022-12-07T13:49:55;7.53;;;5.77;;
15358;SDS011;7779;49.596;11.070;2022-12-07T13:52:25;6.60;;;5.70;;
15358;SDS011;7779;49.596;11.070;2022-12-07T13:54:58;7.30;;;5.70;;
15358;SDS011;7779;49.596;11.070;2022-12-07T13:57:32;7.83;;;6.00;;
15358;SDS011;7779;49.596;11.070;2022-12-07T14:00:02;6.73;;;5.90;;
15358;SDS011;7779;49.596;11.070;2022-12-07T14:02:34;8.17;;;5.70;;
15358;SDS011;7779;49.596;11.070;2022-12-07T14:05:07;6.93;;;6.10;;
15358;SDS011;7779;49.596;11.070;2022-12-07T14:07:56;6.40;;;5.40;;
15358;SDS011;7779;49.596;11.070;2022-12-07T14:10:35;6.73;;;5.33;;
15358;SDS011;7779;49.596;11.070;2022-12-07T14:16:36;6.27;;;5.30;;
15358;SDS011;7779;49.596;11.070;2022-12-07T14:19:04;6.43;;;5.20;;
15358;SDS011;7779;49.596;11.070;2022-12-07T14:22:24;7.37;;;5.40;;
15358;SDS011;7779;49.596;11.070;2022-12-07T14:27:48;8.20;;;5.53;;
15358;SDS011;7779;49.596;11.070;2022-12-07T14:30:25;5.90;;;4.90;;
15358;SDS011;7779;49.596;11.070;2022-12-07T14:33:01;5.97;;;5.00;;
15358;SDS011;7779;49.596;11.070;2022-12-07T14:35:29;6.20;;;5.17;;
15358;SDS011;7779;49.596;11.070;2022-12-07T14:37:57;8.23;;;4.47;;
15358;SDS011;7779;49.596;11.070;2022-12-07T14:40:24;5.60;;;4.93;;
15358;SDS011;7779;49.596;11.070;2022-12-07T14:42:57;6.30;;;4.40;;
15358;SDS011;7779;49.596;11.070;2022-12-07T14:45:30;6.07;;;4.70;;
15358;SDS011;7779;49.596;11.070;2022-12-07T14:47:56;5.13;;;4.57;;
15358;SDS011;7779;49.596;11.070;2022-12-07T14:50:22;5.83;;;4.63;;
15358;SDS011;7779;49.596;11.070;2022-12-07T14:52:52;6.07;;;5.23;;
15358;SDS011;7779;49.596;11.070;2022-12-07T14:55:27;6.30;;;5.07;;
15358;SDS011;7779;49.596;11.070;2022-12-07T14:57:56;6.07;;;5.37;;
15358;SDS011;7779;49.596;11.070;2022-12-07T15:00:23;6.47;;;5.00;;
15358;SDS011;7779;49.596;11.070;2022-12-07T15:02:52;6.13;;;5.30;;
15358;SDS011;7779;49.596;11.070;2022-12-07T15:05:18;6.33;;;4.70;;
15358;SDS011;7779;49.596;11.070;2022-12-07T15:07:45;7.17;;;4.80;;
15358;SDS011;7779;49.596;11.070;2022-12-07T15:10:13;5.50;;;4.10;;
15358;SDS011;7779;49.596;11.070;2022-12-07T15:12:49;5.03;;;3.90;;
15358;SDS011;7779;49.596;11.070;2022-12-07T15:15:16;4.80;;;3.87;;
15358;SDS011;7779;49.596;11.070;2022-12-07T15:17:42;4.50;;;3.73;;
15358;SDS011;7779;49.596;11.070;2022-12-07T15:20:11;5.93;;;4.20;;
15358;SDS011;7779;49.596;11.070;2022-12-07T15:22:39;3.97;;;3.57;;
15358;SDS011;7779;49.596;11.070;2022-12-07T15:25:05;4.10;;;3.27;;
15358;SDS011;7779;49.596;11.070;2022-12-07T15:27:31;3.70;;;3.37;;
15358;SDS011;7779;49.596;11.070;2022-12-07T15:29:58;3.90;;;3.07;;
15358;SDS011;7779;49.596;11.070;2022-12-07T15:32:24;4.10;;;3.30;;
15358;SDS011;7779;49.596;11.070;2022-12-07T15:34:50;3.93;;;3.53;;
15358;SDS011;7779;49.596;11.070;2022-12-07T15:37:16;4.30;;;3.70;;
15358;SDS011;7779;49.596;11.070;2022-12-07T15:39:41;4.20;;;3.80;;
15358;SDS011;7779;49.596;11.070;2022-12-07T15:42:07;5.07;;;3.87;;
15358;SDS011;7779;49.596;11.070;2022-12-07T15:44:33;6.00;;;4.60;;
15358;SDS011;7779;49.596;11.070;2022-12-07T15:47:17;4.90;;;4.30;;
15358;SDS011;7779;49.596;11.070;2022-12-07T15:49:43;5.43;;;4.80;;
15358;SDS011;7779;49.596;11.070;2022-12-07T15:52:09;5.70;;;4.37;;
15358;SDS011;7779;49.596;11.070;2022-12-07T15:54:35;5.27;;;4.70;;
15358;SDS011;7779;49.596;11.070;2022-12-07T15:57:01;5.80;;;4.60;;
15358;SDS011;7779;49.596;11.070;2022-12-07T15:59:27;6.13;;;4.80;;
15358;SDS011;7779;49.596;11.070;2022-12-07T16:01:53;6.00;;;4.60;;
15358;SDS011;7779;49.596;11.070;2022-12-07T16:04:19;5.97;;;4.90;;
15358;SDS011;7779;49.596;11.070;2022-12-07T16:06:45;5.23;;;4.27;;
15358;SDS011;7779;49.596;11.070;2022-12-07T16:09:11;7.00;;;4.90;;
15358;SDS011;7779;49.596;11.070;2022-12-07T16:11:37;5.50;;;4.80;;
15358;SDS011;7779;49.596;11.070;2022-12-07T16:14:03;6.40;;;5.10;;
15358;SDS011;7779;49.596;11.070;2022-12-07T16:16:29;6.90;;;4.83;;
15358;SDS011;7779;49.596;11.070;2022-12-07T16:18:56;5.93;;;4.87;;
15358;SDS011;7779;49.596;11.070;2022-12-07T16:21:23;7.17;;;5.30;;
15358;SDS011;7779;49.596;11.070;2022-12-07T16:23:48;6.60;;;5.20;;
15358;SDS011;7779;49.596;11.070;2022-12-07T16:26:15;6.97;;;5.73;;
15358;SDS011;7779;49.596;11.070;2022-12-07T16:28:44;6.00;;;5.07;;
15358;SDS011;7779;49.596;11.070;2022-12-07T16:31:11;7.63;;;5.50;;
15358;SDS011;7779;49.596;11.070;2022-12-07T16:33:41;7.47;;;5.47;;
15358;SDS011;7779;49.596;11.070;2022-12-07T16:36:09;5.97;;;4.83;;
15358;SDS011;7779;49.596;11.070;2022-12-07T16:38:38;7.03;;;5.33;;
15358;SDS011;7779;49.596;11.070;2022-12-07T16:41:07;6.10;;;4.77;;
15358;SDS011;7779;49.596;11.070;2022-12-07T16:43:34;6.90;;;5.43;;
15358;SDS011;7779;49.596;11.070;2022-12-07T16:46:00;8.03;;;5.70;;
15358;SDS011;7779;49.596;11.070;2022-12-07T16:48:27;8.33;;;6.57;;
15358;SDS011;7779;49.596;11.070;2022-12-07T16:50:53;7.53;;;6.10;;
15358;SDS011;7779;49.596;11.070;2022-12-07T16:53:20;7.83;;;6.30;;
15358;SDS011;7779;49.596;11.070;2022-12-07T16:55:47;8.23;;;5.67;;
15358;SDS011;7779;49.596;11.070;2022-12-07T16:58:14;7.20;;;6.10;;
15358;SDS011;7779;49.596;11.070;2022-12-07T17:00:41;8.63;;;5.83;;
15358;SDS011;7779;49.596;11.070;2022-12-07T17:03:09;7.50;;;6.57;;
15358;SDS011;7779;49.596;11.070;2022-12-07T17:05:39;7.80;;;6.53;;
15358;SDS011;7779;49.596;11.070;2022-12-07T17:08:07;8.33;;;6.20;;